Ashland, ME (04737)

12:33 PM EST on March 02, 2015 (GMT -0500)
Northern Maine Regional At Presque Isle | Change Station
CLOSE
Current Station
Airport
Location: Presque Isle,
Elevation: 479 ft
Nearby Weather Stations

Elev 479 ft 46.69 °N, 68.04 °W | Updated 18 minutes ago

Overcast
Overcast
27 °F
Feels Like 17 °F
N
10
Wind Variable Wind from NW
Gusts 18 mph

Today
High -- | Low -- °F
--% Chance of Precip.
Yesterday
High -- | Low -- °F
Precip. -- in
6:16 AM 5:25 PM
Waxing Gibbous, 92% visible
Pressure 29.67 in
Visibility 10.0 miles
Clouds Mostly Cloudy 3500 ft
Overcast 4200 ft
Windchill 17 °F
Dew Point 10 °F
Humidity 51%
Rainfall 0.00 in
Snow Depth Not available.
UV 1 out of 12
Pollen .30 out of 12
Air Quality Not available.
Flu Activity Not available.
METAR KPQI 021715Z AUTO 32009G16KT 10SM BKN035 OVC042 M03/M12 A2967 RMK AO1

More Conditions Fewer Conditions

Pressure 29.67 in
Visibility 10.0 miles
Clouds Mostly Cloudy 3500 ft
Overcast 4200 ft
Windchill 17 °F
Dew Point 10 °F
Humidity 51%
Rainfall 0.00 in
Snow Depth Not available.
UV 1 out of 12
Pollen .30 out of 12
Air Quality Not available.
Flu Activity Not available.
METAR KPQI 021715Z AUTO 32009G16KT 10SM BKN035 OVC042 M03/M12 A2967 RMK AO1

More Conditions Fewer Conditions

10-Day Weather Forecast

Almanac

Astronomy

Mar. 02, 2015 Rise Set
Actual Time
Civil Twilight
Nautical Twilight
Astronomical Twilight
Moon
Length of Visible Light
Length of Day
Tomorrow will be .
, % of the Moon is Illuminated

Today's Extremes

State Highs State Lows

Community

WunderPhotos

Upload Photos

1,801,877 photos uploaded!

WunderBlogs® & News

Nearby

Air Quality

  Air Quality AQ Index Pollutant
Not available.

Snow Depth

Station Depth Elevation

Earthquake Activity

City Distance Mag. Time & Date
Minimum magnitude displayed is 2.5.

Coastal Water Temperatures

Place Temperature

Nearby Weather Stations

Wind Chill Advisory
Statement as of 6:41 AM EST on March 02, 2015

... Wind Chill Advisory remains in effect from 2 am to 7 am EST
Tuesday...

* locations... northern Aroostook... northern Piscataquis and
northern Somerset counties.

* Wind chill... as low as 27 below.

* Timing... late tonight into early Tuesday morning.

* Winds... northwest 10 to 20 mph with gusts up to 45 mph.

* Temperatures... 6 below to 1 above zero.

Precautionary/preparedness actions...

A Wind Chill Advisory means that very cold air and strong winds
will combine to generate low wind chills. This will result in
frost bite and lead to hypothermia if precautions are not taken.
If you must venture outdoors... make sure you wear a hat and
gloves.